Time;durP1;ratioP1;P1;durP2;ratioP2;P2;SDS_P1;SDS_P2;PMS_P1;PMS_P2;Temp;Humidity;BMP_temperature;BMP_pressure;BME280_temperature;BME280_humidity;BME280_pressure;Samples;Min_cycle;Max_cycle;Signal;HPM_P1;HPM_P2
2023/04/18 00:00:24;;;;;;;9.07;6.20;;;7.00;99.90;;;;;;5032235;28;20880;-57
2023/04/18 00:02:53;;;;;;;7.57;6.00;;;7.00;99.90;;;;;;5032980;28;20202;-57
2023/04/18 00:05:19;;;;;;;9.87;6.67;;;7.00;99.90;;;;;;5035227;28;20207;-56
2023/04/18 00:07:45;;;;;;;8.60;5.97;;;7.00;99.90;;;;;;5034560;28;20459;-57
2023/04/18 00:10:11;;;;;;;6.87;6.00;;;7.00;99.90;;;;;;5035361;28;20441;-57
2023/04/18 00:12:38;;;;;;;6.20;5.10;;;7.00;99.90;;;;;;5034169;28;20423;-58
2023/04/18 00:15:04;;;;;;;8.80;6.30;;;7.00;99.90;;;;;;5036153;28;20759;-57
2023/04/18 00:17:31;;;;;;;6.00;5.40;;;7.00;99.90;;;;;;5033353;28;20549;-57
2023/04/18 00:19:57;;;;;;;6.60;5.47;;;7.10;99.90;;;;;;5034264;28;20489;-59
2023/04/18 00:22:23;;;;;;;6.17;5.00;;;7.10;99.90;;;;;;5032663;28;20507;-54
2023/04/18 00:24:50;;;;;;;6.80;5.50;;;7.10;99.90;;;;;;5035705;28;20214;-57
2023/04/18 00:27:20;;;;;;;9.00;6.63;;;7.10;99.90;;;;;;5037653;28;20936;-58
2023/04/18 00:29:46;;;;;;;8.47;6.50;;;7.10;99.90;;;;;;5035164;28;20498;-58
2023/04/18 00:32:12;;;;;;;8.20;5.83;;;7.10;99.90;;;;;;5032761;28;20419;-57
2023/04/18 00:34:39;;;;;;;9.60;5.70;;;7.10;99.90;;;;;;5033744;28;20449;-57
2023/04/18 00:37:05;;;;;;;6.77;5.70;;;7.10;99.90;;;;;;5033469;28;20958;-56
2023/04/18 00:39:31;;;;;;;9.47;6.70;;;7.10;99.90;;;;;;5033530;28;20450;-56
2023/04/18 00:41:56;;;;;;;8.00;6.80;;;7.10;99.90;;;;;;5034767;28;20449;-55
2023/04/18 00:44:22;;;;;;;10.90;7.20;;;7.10;99.90;;;;;;5033522;28;20183;-58
2023/04/18 00:46:48;;;;;;;11.83;7.90;;;7.10;99.90;;;;;;5034944;28;20218;-56
2023/04/18 00:49:14;;;;;;;12.07;8.43;;;7.10;99.90;;;;;;5046190;28;20340;-56
2023/04/18 00:51:40;;;;;;;10.73;7.60;;;7.10;99.90;;;;;;5033966;28;20195;-55
2023/04/18 00:54:06;;;;;;;8.80;7.10;;;7.10;99.90;;;;;;5037155;28;20493;-57
2023/04/18 00:56:33;;;;;;;11.43;8.70;;;7.10;99.90;;;;;;5035905;28;20211;-57
2023/04/18 00:59:00;;;;;;;11.90;9.00;;;7.10;99.90;;;;;;5038345;28;20445;-56
2023/04/18 01:01:26;;;;;;;10.70;7.27;;;7.10;99.90;;;;;;5034758;28;20438;-57
2023/04/18 01:03:51;;;;;;;11.77;7.80;;;7.10;99.90;;;;;;5031110;28;20499;-56
2023/04/18 01:06:17;;;;;;;10.97;7.90;;;7.10;99.90;;;;;;5048185;28;20311;-59
2023/04/18 01:08:44;;;;;;;9.80;7.47;;;7.10;99.90;;;;;;5036357;28;20263;-59
2023/04/18 01:11:10;;;;;;;12.07;8.33;;;7.10;99.90;;;;;;5035552;28;20426;-56
2023/04/18 01:13:35;;;;;;;10.90;8.43;;;7.10;99.90;;;;;;5033922;28;20426;-54
2023/04/18 01:16:01;;;;;;;11.53;8.73;;;7.10;99.90;;;;;;5036860;28;20762;-56
2023/04/18 01:18:30;;;;;;;13.93;8.90;;;7.20;99.90;;;;;;5035705;28;20179;-56
2023/04/18 01:20:59;;;;;;;12.43;8.77;;;7.10;99.90;;;;;;5038978;28;20292;-58
2023/04/18 01:23:25;;;;;;;13.40;8.80;;;7.10;99.90;;;;;;5036228;28;20495;-56
2023/04/18 01:25:51;;;;;;;12.30;8.80;;;7.00;99.90;;;;;;5032913;28;20460;-56
2023/04/18 01:30:56;;;;;;;12.43;8.57;;;7.00;99.90;;;;;;5050470;28;20199;-58
2023/04/18 01:33:21;;;;;;;13.77;9.00;;;7.00;99.90;;;;;;5054084;28;21942;-58
2023/04/18 01:35:48;;;;;;;13.70;9.13;;;7.00;99.90;;;;;;5058145;28;20171;-58
2023/04/18 01:38:14;;;;;;;14.10;9.13;;;7.00;99.90;;;;;;5052870;28;20171;-59
2023/04/18 01:40:39;;;;;;;11.47;8.60;;;7.00;99.90;;;;;;5044942;28;20607;-58
2023/04/18 01:43:05;;;;;;;16.00;10.10;;;7.00;99.90;;;;;;5044721;28;20251;-58
2023/04/18 01:45:30;;;;;;;13.17;9.00;;;7.00;99.90;;;;;;5043832;28;20195;-58
2023/04/18 01:47:56;;;;;;;13.27;9.03;;;7.00;99.90;;;;;;5043295;28;20599;-57
2023/04/18 01:50:22;;;;;;;14.03;10.10;;;7.00;99.90;;;;;;5041754;28;20227;-58
2023/04/18 01:52:47;;;;;;;13.70;9.47;;;7.00;99.90;;;;;;5041601;28;20179;-59
2023/04/18 01:55:13;;;;;;;13.03;9.00;;;7.00;99.90;;;;;;5041694;28;20179;-58
2023/04/18 01:57:39;;;;;;;14.60;9.30;;;7.10;99.90;;;;;;5045305;28;20171;-58
2023/04/18 02:00:05;;;;;;;15.00;10.00;;;7.10;99.90;;;;;;5046089;28;20195;-58
2023/04/18 02:02:31;;;;;;;12.80;8.50;;;7.10;99.90;;;;;;5042124;28;20444;-57
2023/04/18 02:04:57;;;;;;;14.57;9.60;;;7.00;99.90;;;;;;5048229;28;20437;-58
2023/04/18 02:07:22;;;;;;;16.80;10.70;;;7.00;99.90;;;;;;5047044;28;21661;-58
2023/04/18 02:09:48;;;;;;;16.43;10.30;;;7.00;99.90;;;;;;5047184;28;20259;-59
2023/04/18 02:12:14;;;;;;;14.13;9.47;;;7.00;99.90;;;;;;5048237;28;20732;-59
2023/04/18 02:14:39;;;;;;;14.70;9.63;;;7.10;99.90;;;;;;5045771;28;20175;-59
2023/04/18 02:17:05;;;;;;;12.00;8.70;;;7.10;99.90;;;;;;5047026;28;20179;-60
2023/04/18 02:19:31;;;;;;;13.37;8.93;;;7.10;99.90;;;;;;5047662;28;20873;-59
2023/04/18 02:21:56;;;;;;;10.57;7.57;;;7.10;99.90;;;;;;5045434;28;20206;-59
2023/04/18 02:24:22;;;;;;;13.33;9.63;;;7.20;99.90;;;;;;5045445;28;20183;-59
2023/04/18 02:26:48;;;;;;;11.00;7.67;;;7.10;99.90;;;;;;5047094;28;20171;-57
2023/04/18 02:29:14;;;;;;;11.27;7.30;;;7.10;99.90;;;;;;5046335;28;20667;-57
2023/04/18 02:31:40;;;;;;;11.90;8.37;;;7.10;99.90;;;;;;5045041;28;20429;-57
2023/04/18 02:34:06;;;;;;;14.03;8.70;;;7.10;99.90;;;;;;5047202;28;20197;-56
2023/04/18 02:36:32;;;;;;;12.70;8.57;;;7.10;99.90;;;;;;5042873;28;20438;-58
2023/04/18 02:38:58;;;;;;;13.90;8.90;;;7.10;99.90;;;;;;5044054;28;20451;-57
2023/04/18 02:41:24;;;;;;;12.90;9.20;;;7.10;99.90;;;;;;5043400;28;20469;-58
2023/04/18 02:43:49;;;;;;;17.07;9.60;;;7.10;99.90;;;;;;5046329;28;20752;-57
2023/04/18 02:46:15;;;;;;;14.80;8.80;;;7.10;99.90;;;;;;5044246;28;20171;-58
2023/04/18 02:48:41;;;;;;;13.90;9.37;;;7.10;99.90;;;;;;5047029;28;20582;-57
2023/04/18 02:51:07;;;;;;;14.20;9.77;;;7.10;99.90;;;;;;5047427;28;21062;-57
2023/04/18 02:53:34;;;;;;;14.13;10.60;;;7.10;99.90;;;;;;5044915;28;20171;-56
2023/04/18 02:56:00;;;;;;;14.93;9.93;;;7.10;99.90;;;;;;5043778;28;20426;-57
2023/04/18 02:58:26;;;;;;;16.23;10.30;;;7.00;99.90;;;;;;5046596;28;20455;-58
2023/04/18 03:00:53;;;;;;;18.53;10.33;;;7.10;99.90;;;;;;5045385;28;20446;-58
2023/04/18 03:03:18;;;;;;;16.53;10.20;;;7.00;99.90;;;;;;5044215;28;20453;-57
2023/04/18 03:05:44;;;;;;;14.80;10.03;;;7.00;99.90;;;;;;5047260;28;20800;-56
2023/04/18 03:08:10;;;;;;;19.17;11.33;;;7.00;99.90;;;;;;5043422;28;20573;-58
2023/04/18 03:10:36;;;;;;;20.70;12.17;;;7.00;99.90;;;;;;5044558;28;20457;-57
2023/04/18 03:13:01;;;;;;;17.50;10.33;;;7.00;99.90;;;;;;5043882;28;20180;-58
2023/04/18 03:15:29;;;;;;;20.80;11.87;;;7.00;99.90;;;;;;5044439;28;20182;-56
2023/04/18 03:17:55;;;;;;;16.33;11.63;;;7.00;99.90;;;;;;5046965;28;20640;-60
2023/04/18 03:20:21;;;;;;;18.77;11.60;;;6.90;99.90;;;;;;5046522;28;20547;-60
2023/04/18 03:22:47;;;;;;;17.93;12.30;;;6.90;99.90;;;;;;5043148;28;20288;-56
2023/04/18 03:25:12;;;;;;;18.20;11.27;;;6.90;99.90;;;;;;5045765;28;21419;-57
2023/04/18 03:27:38;;;;;;;23.00;13.17;;;6.90;99.90;;;;;;5045258;28;20183;-58
2023/04/18 03:30:04;;;;;;;17.23;11.07;;;6.90;99.90;;;;;;5043843;28;20210;-57
2023/04/18 03:32:32;;;;;;;16.90;11.00;;;6.90;99.90;;;;;;5046799;28;20179;-57
2023/04/18 03:34:58;;;;;;;19.10;11.20;;;6.90;99.90;;;;;;5046102;28;20430;-57
2023/04/18 03:37:24;;;;;;;17.03;11.60;;;6.90;99.90;;;;;;5045827;28;20437;-56
2023/04/18 03:39:49;;;;;;;16.67;11.27;;;6.90;99.90;;;;;;5043247;28;20191;-58
2023/04/18 03:42:15;;;;;;;19.50;11.97;;;6.90;99.90;;;;;;5040364;28;20182;-58
2023/04/18 03:44:40;;;;;;;21.20;12.90;;;6.90;99.90;;;;;;5046557;28;20233;-57
2023/04/18 03:47:06;;;;;;;22.23;12.43;;;6.90;99.90;;;;;;5046977;28;20564;-58
2023/04/18 03:49:32;;;;;;;18.60;12.50;;;6.90;99.90;;;;;;5048127;28;20208;-58
2023/04/18 03:51:57;;;;;;;19.40;11.63;;;6.90;99.90;;;;;;5046108;28;20174;-59
2023/04/18 03:54:23;;;;;;;16.93;11.53;;;6.90;99.90;;;;;;5043152;28;20179;-57
2023/04/18 03:56:49;;;;;;;22.77;13.20;;;6.90;99.90;;;;;;5043793;28;20716;-60
2023/04/18 03:59:15;;;;;;;21.27;12.40;;;6.90;99.90;;;;;;5046236;28;20207;-60
2023/04/18 04:01:40;;;;;;;20.40;13.13;;;6.90;99.90;;;;;;5039655;28;20229;-59
2023/04/18 04:04:07;;;;;;;23.43;14.87;;;7.00;99.90;;;;;;5045196;28;20430;-59
2023/04/18 04:06:33;;;;;;;20.90;13.30;;;7.00;99.90;;;;;;5034700;28;20171;-57
2023/04/18 04:08:59;;;;;;;20.47;13.97;;;7.00;99.90;;;;;;5043344;28;20465;-58
2023/04/18 04:11:25;;;;;;;22.30;13.97;;;7.00;99.90;;;;;;5033074;28;20179;-59
2023/04/18 04:13:51;;;;;;;17.63;12.00;;;7.00;99.90;;;;;;5002577;28;20426;-55
2023/04/18 04:16:17;;;;;;;21.30;14.50;;;7.00;99.90;;;;;;5037545;28;20465;-56
2023/04/18 04:18:42;;;;;;;20.93;13.70;;;7.00;99.90;;;;;;5042690;28;20205;-57
2023/04/18 04:21:08;;;;;;;21.23;13.37;;;6.90;99.90;;;;;;5038614;28;20266;-57
2023/04/18 04:23:34;;;;;;;25.00;13.80;;;7.00;99.90;;;;;;5040050;28;20175;-56
2023/04/18 04:26:03;;;;;;;20.53;13.20;;;6.90;99.90;;;;;;5042706;28;20658;-56
2023/04/18 04:28:29;;;;;;;21.50;13.43;;;6.90;99.90;;;;;;5042226;28;20232;-56
2023/04/18 04:30:55;;;;;;;22.30;13.67;;;6.90;99.90;;;;;;5045933;28;20437;-57
2023/04/18 04:33:27;;;;;;;23.20;13.10;;;7.00;99.90;;;;;;5042995;28;20547;-58
2023/04/18 04:35:53;;;;;;;21.90;12.93;;;7.00;99.90;;;;;;5039390;28;20510;-56
2023/04/18 04:38:21;;;;;;;19.80;13.73;;;6.90;99.90;;;;;;5036207;28;20468;-57
2023/04/18 04:40:48;;;;;;;19.60;13.07;;;7.00;99.90;;;;;;5038916;28;20548;-57
2023/04/18 04:43:14;;;;;;;22.73;13.40;;;6.90;99.90;;;;;;5036681;28;20429;-56
2023/04/18 04:45:40;;;;;;;19.90;12.43;;;6.90;99.90;;;;;;5038755;28;20495;-58
2023/04/18 04:48:10;;;;;;;18.77;12.33;;;6.90;99.90;;;;;;5046672;28;20832;-57
2023/04/18 04:50:37;;;;;;;18.07;12.07;;;6.90;99.90;;;;;;5048517;28;20463;-58
2023/04/18 04:53:04;;;;;;;19.90;12.17;;;6.90;99.90;;;;;;5043582;28;21005;-56
2023/04/18 04:55:29;;;;;;;17.10;10.60;;;6.90;99.90;;;;;;5045203;28;20512;-57
2023/04/18 04:57:56;;;;;;;24.27;12.37;;;6.90;99.90;;;;;;5042914;28;20504;-56
2023/04/18 05:00:22;;;;;;;21.80;11.77;;;6.90;99.90;;;;;;5044520;28;20268;-57
2023/04/18 05:02:48;;;;;;;20.67;12.17;;;6.80;99.90;;;;;;5026963;28;20452;-56
2023/04/18 05:05:13;;;;;;;21.50;11.50;;;6.80;99.90;;;;;;5039224;28;20726;-57
2023/04/18 05:07:39;;;;;;;21.80;11.07;;;6.80;99.90;;;;;;5040234;28;20965;-57
2023/04/18 05:10:05;;;;;;;18.03;11.43;;;6.80;99.90;;;;;;5039454;28;20198;-57
2023/04/18 05:12:30;;;;;;;17.10;10.93;;;6.90;99.90;;;;;;5050583;28;20183;-58
2023/04/18 05:14:56;;;;;;;21.07;12.53;;;6.80;99.90;;;;;;5038694;28;20175;-57
2023/04/18 05:17:22;;;;;;;15.87;10.00;;;6.80;99.90;;;;;;5047863;28;20183;-56
2023/04/18 05:19:47;;;;;;;17.53;11.13;;;6.80;99.90;;;;;;5046502;28;20207;-56
2023/04/18 05:22:13;;;;;;;22.43;11.60;;;6.80;99.90;;;;;;5057866;28;20178;-57
2023/04/18 05:24:39;;;;;;;17.17;10.03;;;6.80;99.90;;;;;;5049830;28;20603;-55
2023/04/18 05:27:05;;;;;;;19.10;11.20;;;6.80;99.90;;;;;;5047275;28;20174;-56
2023/04/18 05:29:31;;;;;;;17.70;11.43;;;6.80;99.90;;;;;;5049386;28;21258;-58
2023/04/18 05:31:56;;;;;;;21.47;11.47;;;6.90;99.90;;;;;;5034890;28;20467;-56
2023/04/18 05:34:22;;;;;;;17.33;11.20;;;6.90;99.90;;;;;;5046313;28;20229;-56
2023/04/18 05:36:48;;;;;;;20.87;9.30;;;6.90;99.90;;;;;;5052628;28;20186;-58
2023/04/18 05:39:13;;;;;;;18.50;11.00;;;6.90;99.90;;;;;;5048381;28;20694;-57
2023/04/18 05:41:39;;;;;;;18.00;10.20;;;6.90;99.90;;;;;;5047371;28;20293;-58
2023/04/18 05:44:05;;;;;;;17.47;10.20;;;6.90;99.90;;;;;;5049295;28;20702;-56
2023/04/18 05:46:31;;;;;;;16.93;10.27;;;6.90;99.90;;;;;;5049582;28;20270;-55
2023/04/18 05:48:57;;;;;;;19.20;11.40;;;6.90;99.90;;;;;;5055076;28;20207;-56
2023/04/18 05:51:22;;;;;;;17.63;10.60;;;6.90;99.90;;;;;;5050959;28;20431;-56
2023/04/18 05:53:48;;;;;;;22.47;10.93;;;6.90;99.90;;;;;;5044234;28;20244;-56
2023/04/18 05:56:13;;;;;;;18.83;10.83;;;6.90;99.90;;;;;;5044861;28;20614;-57
2023/04/18 05:58:39;;;;;;;18.70;11.30;;;6.90;99.90;;;;;;5049833;28;20219;-56
2023/04/18 06:01:05;;;;;;;19.07;11.00;;;6.90;99.90;;;;;;5042251;28;20244;-59
2023/04/18 06:03:31;;;;;;;21.23;12.30;;;6.90;99.90;;;;;;5052093;28;20184;-57
2023/04/18 06:05:56;;;;;;;16.70;10.33;;;6.90;99.90;;;;;;5049853;28;20433;-57
2023/04/18 06:08:22;;;;;;;20.00;11.93;;;6.80;99.90;;;;;;5041359;28;20206;-55
2023/04/18 06:10:48;;;;;;;21.77;12.60;;;6.80;99.90;;;;;;5049957;28;20297;-56
2023/04/18 06:13:13;;;;;;;24.20;12.60;;;6.80;99.90;;;;;;5048112;28;20182;-58
2023/04/18 06:15:39;;;;;;;21.63;12.33;;;6.80;99.90;;;;;;5050639;28;20368;-59
2023/04/18 06:18:05;;;;;;;19.80;11.93;;;6.80;99.90;;;;;;5048185;28;20227;-57
2023/04/18 06:20:31;;;;;;;25.23;12.17;;;6.80;99.90;;;;;;5047787;28;20510;-58
2023/04/18 06:22:56;;;;;;;25.87;13.27;;;6.80;99.90;;;;;;5047516;28;20171;-57
2023/04/18 06:25:23;;;;;;;18.20;10.50;;;6.80;99.90;;;;;;5048881;28;20663;-59
2023/04/18 06:27:48;;;;;;;19.00;11.63;;;6.80;99.90;;;;;;5046917;28;20210;-56
2023/04/18 06:30:14;;;;;;;22.03;12.13;;;6.80;99.90;;;;;;5050423;28;20462;-57
2023/04/18 06:32:40;;;;;;;23.00;12.10;;;6.80;99.90;;;;;;5056373;28;20213;-57
2023/04/18 06:35:06;;;;;;;24.37;12.03;;;6.80;99.90;;;;;;5051537;28;20210;-57
2023/04/18 06:37:31;;;;;;;21.63;11.80;;;6.80;99.90;;;;;;5047908;28;20640;-57
2023/04/18 06:39:57;;;;;;;20.13;11.00;;;6.80;99.90;;;;;;5048805;28;20502;-58
2023/04/18 06:42:23;;;;;;;19.57;11.53;;;6.80;99.90;;;;;;5047722;28;20190;-56
2023/04/18 06:44:49;;;;;;;19.30;11.90;;;6.80;99.90;;;;;;5041937;28;20183;-58
2023/04/18 06:47:15;;;;;;;20.70;11.83;;;6.80;99.90;;;;;;5048598;28;20182;-58
2023/04/18 06:49:40;;;;;;;22.77;12.13;;;6.80;99.90;;;;;;5042999;28;20207;-57
2023/04/18 06:52:06;;;;;;;22.97;12.20;;;6.90;99.90;;;;;;5045789;28;20784;-57
2023/04/18 06:54:32;;;;;;;21.17;12.40;;;6.90;99.90;;;;;;5044799;28;20175;-57
2023/04/18 06:56:58;;;;;;;21.30;12.37;;;6.90;99.90;;;;;;5047241;28;20175;-56
2023/04/18 06:59:23;;;;;;;20.10;12.10;;;6.90;99.90;;;;;;5046373;28;20279;-57
2023/04/18 07:01:50;;;;;;;20.47;11.63;;;6.90;99.90;;;;;;5046679;28;20915;-58
2023/04/18 07:04:16;;;;;;;21.63;12.37;;;6.90;99.90;;;;;;5054251;28;20174;-56
2023/04/18 07:06:41;;;;;;;22.50;13.03;;;6.90;99.90;;;;;;5064040;28;20429;-57
2023/04/18 07:09:07;;;;;;;21.90;12.60;;;6.90;99.90;;;;;;5049195;28;20265;-58
2023/04/18 07:11:33;;;;;;;20.70;11.40;;;6.90;99.90;;;;;;5047266;28;20185;-56
2023/04/18 07:13:58;;;;;;;18.97;11.60;;;6.90;99.90;;;;;;5047094;28;20187;-57
2023/04/18 07:16:24;;;;;;;22.50;12.40;;;7.00;99.90;;;;;;5050524;28;20181;-57
2023/04/18 07:18:50;;;;;;;23.40;13.33;;;7.00;99.90;;;;;;5037716;28;20182;-58
2023/04/18 07:21:17;;;;;;;22.80;13.03;;;7.00;99.90;;;;;;5049197;28;20251;-56
2023/04/18 07:23:42;;;;;;;21.67;12.20;;;7.10;99.90;;;;;;5051634;28;20504;-57
2023/04/18 07:26:10;;;;;;;26.07;14.57;;;7.10;99.90;;;;;;5056291;28;20942;-55
2023/04/18 07:28:36;;;;;;;25.37;14.17;;;7.10;99.90;;;;;;5040660;28;20234;-55
2023/04/18 07:31:02;;;;;;;25.63;15.40;;;7.10;99.90;;;;;;5042825;28;20426;-57
2023/04/18 07:33:30;;;;;;;34.30;16.40;;;7.10;99.90;;;;;;5048311;28;20179;-57
2023/04/18 07:35:56;;;;;;;25.57;15.33;;;7.10;99.90;;;;;;5053657;28;20437;-58
2023/04/18 07:38:22;;;;;;;26.00;15.07;;;7.10;99.90;;;;;;5044165;28;20437;-58
2023/04/18 07:40:58;;;;;;;25.00;14.67;;;7.10;99.90;;;;;;5048194;28;20668;-56
2023/04/18 07:43:23;;;;;;;32.87;17.30;;;7.20;99.90;;;;;;5068657;22;20238;-59
2023/04/18 07:45:50;;;;;;;30.47;17.50;;;7.20;99.90;;;;;;5055559;28;20563;-60
2023/04/18 07:48:16;;;;;;;30.70;16.20;;;7.20;99.90;;;;;;5057279;28;20190;-60
2023/04/18 07:50:42;;;;;;;30.03;17.03;;;7.20;99.90;;;;;;5058445;28;20429;-59
2023/04/18 07:53:08;;;;;;;31.10;17.67;;;7.20;99.90;;;;;;5057615;28;20584;-56
2023/04/18 07:55:33;;;;;;;28.53;16.13;;;7.20;99.90;;;;;;5046834;28;20643;-58
2023/04/18 07:57:59;;;;;;;31.50;18.20;;;7.30;99.90;;;;;;5040942;28;20464;-59
2023/04/18 08:00:25;;;;;;;29.90;17.13;;;7.30;99.90;;;;;;5034176;28;20190;-58
2023/04/18 08:02:50;;;;;;;29.43;15.73;;;7.30;99.90;;;;;;5034267;28;20721;-58
2023/04/18 08:05:18;;;;;;;30.90;17.60;;;7.30;99.90;;;;;;5015217;28;20231;-59
2023/04/18 08:07:44;;;;;;;31.60;17.63;;;7.30;99.90;;;;;;5040548;28;20186;-59
2023/04/18 08:10:10;;;;;;;36.50;17.10;;;7.30;99.90;;;;;;5036093;28;20499;-58
2023/04/18 08:12:36;;;;;;;35.23;17.40;;;7.30;99.90;;;;;;5035245;28;20198;-59
2023/04/18 08:15:02;;;;;;;30.27;17.30;;;7.40;99.90;;;;;;5028228;28;20429;-59
2023/04/18 08:17:28;;;;;;;31.30;17.20;;;7.40;99.90;;;;;;5032403;28;20200;-59
2023/04/18 08:19:53;;;;;;;29.80;17.80;;;7.40;99.90;;;;;;5027390;28;20547;-57
2023/04/18 08:22:19;;;;;;;32.60;17.70;;;7.40;99.90;;;;;;5032849;28;20183;-59
2023/04/18 08:24:45;;;;;;;29.30;16.47;;;7.40;99.90;;;;;;5036237;28;20767;-58
2023/04/18 08:27:10;;;;;;;35.23;17.33;;;7.40;99.90;;;;;;5031566;28;20179;-58
2023/04/18 08:29:36;;;;;;;29.87;17.90;;;7.40;99.90;;;;;;5029683;28;20246;-58
2023/04/18 08:32:01;;;;;;;33.53;18.90;;;7.40;99.90;;;;;;5027795;28;20187;-59
2023/04/18 08:34:28;;;;;;;34.03;18.70;;;7.40;99.90;;;;;;5027883;28;20257;-58
2023/04/18 08:36:54;;;;;;;31.97;17.83;;;7.40;99.90;;;;;;5043551;28;20202;-58
2023/04/18 08:39:19;;;;;;;33.20;17.97;;;7.40;99.90;;;;;;5032549;28;20476;-58
2023/04/18 08:41:52;;;;;;;31.23;18.17;;;7.40;99.90;;;;;;5034734;28;21026;-55
2023/04/18 08:44:18;;;;;;;30.63;18.97;;;7.40;99.90;;;;;;5036214;28;20703;-54
2023/04/18 08:46:43;;;;;;;35.57;19.43;;;7.40;99.90;;;;;;5031113;28;20437;-55
2023/04/18 08:49:09;;;;;;;38.37;20.00;;;7.40;99.90;;;;;;5029016;28;20290;-54
2023/04/18 08:51:38;;;;;;;39.10;21.00;;;7.40;99.90;;;;;;5029524;28;20274;-59
2023/04/18 08:54:05;;;;;;;32.07;19.20;;;7.40;99.90;;;;;;5024970;28;20202;-57
2023/04/18 08:56:31;;;;;;;35.07;18.17;;;7.40;99.90;;;;;;5033390;28;20623;-58
2023/04/18 08:58:59;;;;;;;35.20;19.40;;;7.40;99.90;;;;;;5044450;28;20414;-58
2023/04/18 09:01:57;;;;;;;35.70;20.03;;;7.40;99.90;;;;;;5036363;28;20289;-59
2023/04/18 09:04:38;;;;;;;36.67;19.87;;;7.40;99.90;;;;;;5030373;28;20476;-59
2023/04/18 09:07:06;;;;;;;41.17;19.53;;;7.50;99.90;;;;;;5025452;28;20914;-59
2023/04/18 09:09:58;;;;;;;37.37;19.73;;;7.60;99.90;;;;;;5035753;28;20562;-58
2023/04/18 09:12:25;;;;;;;39.70;21.23;;;7.60;99.90;;;;;;5037717;28;20906;-59
2023/04/18 09:15:08;;;;;;;43.70;22.40;;;7.60;99.90;;;;;;5016093;28;20456;-58
2023/04/18 09:17:44;;;;;;;38.67;20.00;;;7.60;99.90;;;;;;5041385;28;20516;-58
2023/04/18 09:20:11;;;;;;;39.80;21.27;;;7.60;99.90;;;;;;5042772;28;20425;-58
2023/04/18 09:22:52;;;;;;;36.40;20.57;;;7.70;99.90;;;;;;5033601;28;20562;-61
2023/04/18 09:25:26;;;;;;;31.87;18.43;;;7.70;99.90;;;;;;5040009;28;20460;-58
2023/04/18 09:27:52;;;;;;;38.20;20.83;;;7.70;99.90;;;;;;5039213;28;20444;-59
2023/04/18 09:30:38;;;;;;;35.17;20.07;;;7.70;99.90;;;;;;5040731;28;21091;-59
2023/04/18 09:33:06;;;;;;;39.37;22.10;;;7.70;99.90;;;;;;5041426;28;20527;-59
2023/04/18 09:35:32;;;;;;;36.23;20.10;;;7.70;99.90;;;;;;5025428;28;20483;-58
2023/04/18 09:37:58;;;;;;;38.87;22.17;;;7.70;99.90;;;;;;5029029;28;20555;-58
2023/04/18 09:40:23;;;;;;;37.07;20.53;;;7.70;99.90;;;;;;5039164;28;22093;-59
2023/04/18 09:42:55;;;;;;;44.77;21.40;;;7.70;99.90;;;;;;5037521;28;20221;-59
2023/04/18 09:45:22;;;;;;;43.93;22.10;;;7.80;99.90;;;;;;5040035;28;20221;-57
2023/04/18 09:47:48;;;;;;;36.23;20.90;;;7.80;99.90;;;;;;5040818;28;20941;-59
2023/04/18 09:50:19;;;;;;;38.33;20.07;;;7.80;99.90;;;;;;5039964;28;20461;-59
2023/04/18 09:52:45;;;;;;;36.30;20.83;;;7.80;99.90;;;;;;5043173;28;20782;-58
2023/04/18 09:55:14;;;;;;;41.67;20.93;;;7.80;99.90;;;;;;5038521;28;20457;-58
2023/04/18 09:57:43;;;;;;;36.33;20.93;;;7.80;99.90;;;;;;5040012;28;21080;-60
2023/04/18 10:00:16;;;;;;;41.93;20.27;;;7.80;99.90;;;;;;5029650;28;20437;-59
2023/04/18 10:03:20;;;;;;;35.57;20.97;;;7.80;99.90;;;;;;5035909;28;21032;-58
2023/04/18 10:05:46;;;;;;;36.00;19.03;;;7.80;99.90;;;;;;5011219;28;20437;-58
2023/04/18 10:08:13;;;;;;;40.97;21.57;;;7.80;99.90;;;;;;5035389;28;20468;-58
2023/04/18 10:10:39;;;;;;;39.10;20.37;;;7.80;99.90;;;;;;5041103;28;20433;-59
2023/04/18 10:13:10;;;;;;;45.00;23.03;;;7.80;99.90;;;;;;5035629;28;20448;-57
2023/04/18 10:15:36;;;;;;;36.23;21.83;;;7.80;99.90;;;;;;5035515;28;20442;-57
2023/04/18 10:18:08;;;;;;;40.90;21.67;;;7.90;99.90;;;;;;5035661;28;20490;-59
2023/04/18 10:20:34;;;;;;;43.73;21.23;;;7.90;99.90;;;;;;5037194;28;20563;-58
2023/04/18 10:23:34;;;;;;;38.70;20.40;;;8.00;99.90;;;;;;5036748;28;20633;-57
2023/04/18 10:26:02;;;;;;;41.67;21.30;;;8.00;99.90;;;;;;5034561;28;20434;-57
2023/04/18 10:28:53;;;;;;;36.67;19.20;;;8.10;99.90;;;;;;5033373;28;20553;-58
2023/04/18 10:31:27;;;;;;;38.07;21.03;;;8.10;99.90;;;;;;5034679;28;20544;-59
2023/04/18 10:33:54;;;;;;;36.53;21.03;;;8.20;99.90;;;;;;5038229;28;20995;-57
2023/04/18 10:36:20;;;;;;;35.57;20.13;;;8.20;99.90;;;;;;5038714;28;20503;-58
2023/04/18 10:38:54;;;;;;;35.30;19.03;;;8.30;99.90;;;;;;5034974;28;20442;-59
2023/04/18 10:41:29;;;;;;;40.00;22.23;;;8.40;99.90;;;;;;5044930;28;20966;-57
2023/04/18 10:44:06;;;;;;;32.20;19.83;;;8.50;99.90;;;;;;5035129;28;20486;-56
2023/04/18 10:46:37;;;;;;;36.40;20.30;;;8.60;99.90;;;;;;5038564;28;20425;-58
2023/04/18 10:49:18;;;;;;;35.90;20.50;;;8.60;99.90;;;;;;5040249;28;21183;-58
2023/04/18 10:51:50;;;;;;;34.43;20.13;;;8.70;99.90;;;;;;5020368;28;20826;-59
2023/04/18 10:54:31;;;;;;;34.50;19.87;;;8.80;99.90;;;;;;5041141;28;20833;-55
2023/04/18 10:56:58;;;;;;;31.80;18.27;;;8.80;99.90;;;;;;5036960;28;20429;-58
2023/04/18 10:59:25;;;;;;;32.53;19.20;;;8.90;99.90;;;;;;5036363;28;20572;-59
2023/04/18 11:02:40;;;;;;;34.20;19.70;;;8.90;99.90;;;;;;5039059;28;20446;-59
2023/04/18 11:05:07;;;;;;;35.47;19.07;;;9.00;99.90;;;;;;4958564;28;20555;-57
2023/04/18 11:07:47;;;;;;;34.33;19.90;;;9.00;99.90;;;;;;4949763;28;20448;-58
2023/04/18 11:10:17;;;;;;;34.53;20.53;;;9.10;99.90;;;;;;5001779;28;20506;-57
2023/04/18 11:12:43;;;;;;;32.07;19.73;;;9.10;99.90;;;;;;5035455;28;20519;-58
2023/04/18 11:15:11;;;;;;;39.37;22.37;;;9.20;99.90;;;;;;5034165;28;21093;-58
2023/04/18 11:17:41;;;;;;;42.53;23.27;;;9.30;99.90;;;;;;5038069;28;20164;-57
2023/04/18 11:20:11;;;;;;;38.70;20.70;;;9.30;99.90;;;;;;5037033;28;20545;-57
2023/04/18 11:22:51;;;;;;;36.50;19.73;;;9.40;99.90;;;;;;5034394;28;20421;-58
2023/04/18 11:25:18;;;;;;;35.80;19.30;;;9.50;99.90;;;;;;5040340;28;20446;-58
2023/04/18 11:27:46;;;;;;;31.57;19.83;;;9.50;99.90;;;;;;5036335;28;20456;-58
2023/04/18 11:30:13;;;;;;;31.60;19.10;;;9.60;99.90;;;;;;5018258;28;20505;-59
2023/04/18 11:32:39;;;;;;;35.53;20.93;;;9.60;99.90;;;;;;5030351;28;20430;-58
2023/04/18 11:35:08;;;;;;;32.70;18.60;;;9.70;99.90;;;;;;5038347;28;20483;-58
2023/04/18 11:37:35;;;;;;;31.73;19.27;;;9.80;99.90;;;;;;5038138;28;20425;-58
2023/04/18 11:40:01;;;;;;;27.40;16.40;;;9.90;99.90;;;;;;5036627;28;20528;-56
2023/04/18 11:42:27;;;;;;;26.70;17.10;;;10.00;99.90;;;;;;5042174;28;20440;-58
2023/04/18 11:44:53;;;;;;;28.63;17.63;;;10.00;99.90;;;;;;5038746;28;20468;-59
2023/04/18 11:47:25;;;;;;;28.60;15.17;;;10.10;99.90;;;;;;5035522;28;20664;-58
2023/04/18 11:50:02;;;;;;;24.50;15.37;;;10.10;99.90;;;;;;5043427;28;20214;-57
2023/04/18 11:52:29;;;;;;;27.77;15.37;;;10.20;99.90;;;;;;5042985;28;20434;-58
2023/04/18 11:55:08;;;;;;;22.53;15.10;;;10.20;99.90;;;;;;5020752;28;20450;-59
2023/04/18 11:57:34;;;;;;;34.43;16.73;;;10.20;99.90;;;;;;5037706;28;21142;-56
2023/04/18 12:00:00;;;;;;;25.90;16.10;;;10.30;99.90;;;;;;5036459;28;20434;-56
2023/04/18 12:02:38;;;;;;;23.17;15.43;;;10.30;99.90;;;;;;5038765;28;20261;-59
2023/04/18 12:05:03;;;;;;;24.53;15.73;;;10.50;99.90;;;;;;5037696;28;20507;-58
2023/04/18 12:07:46;;;;;;;22.40;14.37;;;10.60;99.90;;;;;;5043912;28;20839;-57
2023/04/18 12:10:22;;;;;;;23.50;13.63;;;10.80;99.90;;;;;;5036305;28;20887;-57
2023/04/18 12:12:49;;;;;;;23.03;13.90;;;11.00;99.90;;;;;;5036265;28;20540;-58
2023/04/18 12:15:16;;;;;;;23.00;12.80;;;11.20;99.90;;;;;;5038357;28;20453;-57
2023/04/18 12:17:50;;;;;;;22.60;14.20;;;11.50;99.90;;;;;;5041039;28;20526;-58
2023/04/18 12:20:17;;;;;;;19.87;12.50;;;11.60;99.90;;;;;;5038865;28;20424;-57
2023/04/18 12:22:48;;;;;;;22.30;12.80;;;11.80;99.90;;;;;;5038482;28;20537;-57
2023/04/18 12:25:21;;;;;;;20.90;14.10;;;11.80;99.90;;;;;;5036964;28;20485;-58
2023/04/18 12:27:48;;;;;;;22.50;12.57;;;11.80;99.90;;;;;;5023002;28;20794;-57
2023/04/18 12:30:14;;;;;;;20.33;12.73;;;11.70;99.90;;;;;;5045068;28;20426;-57
2023/04/18 12:32:40;;;;;;;20.43;12.40;;;11.70;99.90;;;;;;5039588;28;20433;-58
2023/04/18 12:35:07;;;;;;;16.40;11.73;;;11.60;99.90;;;;;;5029037;28;20938;-55
2023/04/18 12:37:32;;;;;;;18.70;12.13;;;11.70;99.90;;;;;;5044083;28;20187;-57
2023/04/18 12:39:58;;;;;;;29.10;13.60;;;11.70;99.90;;;;;;5014028;28;20481;-58
2023/04/18 12:42:23;;;;;;;22.63;14.00;;;11.70;99.90;;;;;;5039457;28;20182;-57